sensor_id;sensor_type;location;lat;lon;timestamp;P1;durP1;ratioP1;P2;durP2;ratioP2
1949;SDS011;975;48.760;9.152;2024-03-23T00:55:51;4.88;;;2.40;;
1949;SDS011;975;48.760;9.152;2024-03-23T00:58:21;4.63;;;2.30;;
1949;SDS011;975;48.760;9.152;2024-03-23T01:00:52;4.28;;;2.30;;
1949;SDS011;975;48.760;9.152;2024-03-23T01:03:21;6.90;;;2.28;;
1949;SDS011;975;48.760;9.152;2024-03-23T01:05:49;4.90;;;2.30;;
1949;SDS011;975;48.760;9.152;2024-03-23T01:08:15;4.30;;;2.30;;
1949;SDS011;975;48.760;9.152;2024-03-23T01:10:42;3.60;;;2.42;;
1949;SDS011;975;48.760;9.152;2024-03-23T01:13:10;3.08;;;1.98;;
1949;SDS011;975;48.760;9.152;2024-03-23T01:15:38;4.53;;;1.95;;
1949;SDS011;975;48.760;9.152;2024-03-23T01:18:04;4.88;;;2.35;;
1949;SDS011;975;48.760;9.152;2024-03-23T01:20:33;3.45;;;2.22;;
1949;SDS011;975;48.760;9.152;2024-03-23T01:23:00;5.25;;;2.33;;
1949;SDS011;975;48.760;9.152;2024-03-23T01:25:27;4.38;;;2.33;;
1949;SDS011;975;48.760;9.152;2024-03-23T01:27:53;5.50;;;2.20;;
1949;SDS011;975;48.760;9.152;2024-03-23T01:30:22;3.00;;;2.13;;
1949;SDS011;975;48.760;9.152;2024-03-23T01:32:49;5.65;;;2.30;;
1949;SDS011;975;48.760;9.152;2024-03-23T01:35:16;4.55;;;2.10;;
1949;SDS011;975;48.760;9.152;2024-03-23T01:37:43;6.78;;;2.53;;
1949;SDS011;975;48.760;9.152;2024-03-23T01:40:11;4.78;;;2.10;;
1949;SDS011;975;48.760;9.152;2024-03-23T01:42:38;7.47;;;2.45;;
1949;SDS011;975;48.760;9.152;2024-03-23T01:45:07;4.22;;;1.98;;
1949;SDS011;975;48.760;9.152;2024-03-23T01:47:35;3.45;;;2.03;;
1949;SDS011;975;48.760;9.152;2024-03-23T01:50:03;3.50;;;1.95;;
1949;SDS011;975;48.760;9.152;2024-03-23T01:52:29;4.05;;;2.03;;
1949;SDS011;975;48.760;9.152;2024-03-23T01:54:57;3.75;;;1.52;;
1949;SDS011;975;48.760;9.152;2024-03-23T01:57:24;7.97;;;2.53;;
1949;SDS011;975;48.760;9.152;2024-03-23T01:59:51;3.55;;;2.10;;
1949;SDS011;975;48.760;9.152;2024-03-23T02:02:18;2.85;;;1.90;;
1949;SDS011;975;48.760;9.152;2024-03-23T02:04:47;7.55;;;2.22;;
1949;SDS011;975;48.760;9.152;2024-03-23T02:07:14;2.67;;;1.90;;
1949;SDS011;975;48.760;9.152;2024-03-23T02:09:41;3.63;;;1.70;;
1949;SDS011;975;48.760;9.152;2024-03-23T02:12:08;2.80;;;1.90;;
1949;SDS011;975;48.760;9.152;2024-03-23T02:14:36;3.25;;;2.00;;
1949;SDS011;975;48.760;9.152;2024-03-23T02:17:02;4.68;;;2.00;;
1949;SDS011;975;48.760;9.152;2024-03-23T02:19:30;3.10;;;1.92;;
1949;SDS011;975;48.760;9.152;2024-03-23T02:21:57;3.65;;;1.83;;
1949;SDS011;975;48.760;9.152;2024-03-23T02:24:26;5.10;;;2.05;;
1949;SDS011;975;48.760;9.152;2024-03-23T02:26:53;3.88;;;2.20;;
1949;SDS011;975;48.760;9.152;2024-03-23T02:29:20;4.70;;;2.78;;
1949;SDS011;975;48.760;9.152;2024-03-23T02:31:46;2.13;;;1.88;;
1949;SDS011;975;48.760;9.152;2024-03-23T02:34:14;2.92;;;1.80;;
1949;SDS011;975;48.760;9.152;2024-03-23T02:36:40;4.75;;;2.10;;
1949;SDS011;975;48.760;9.152;2024-03-23T02:39:08;4.38;;;2.17;;
1949;SDS011;975;48.760;9.152;2024-03-23T02:41:36;3.65;;;2.00;;
1949;SDS011;975;48.760;9.152;2024-03-23T02:44:04;3.63;;;1.73;;
1949;SDS011;975;48.760;9.152;2024-03-23T02:46:32;4.20;;;1.83;;
1949;SDS011;975;48.760;9.152;2024-03-23T02:48:59;7.78;;;1.80;;
1949;SDS011;975;48.760;9.152;2024-03-23T02:51:26;3.78;;;1.73;;
1949;SDS011;975;48.760;9.152;2024-03-23T02:53:53;3.08;;;1.83;;
1949;SDS011;975;48.760;9.152;2024-03-23T02:56:20;3.65;;;2.15;;
1949;SDS011;975;48.760;9.152;2024-03-23T02:58:48;4.85;;;2.08;;
1949;SDS011;975;48.760;9.152;2024-03-23T03:01:15;2.83;;;1.90;;
1949;SDS011;975;48.760;9.152;2024-03-23T03:03:42;3.25;;;1.77;;
1949;SDS011;975;48.760;9.152;2024-03-23T03:06:10;3.00;;;2.20;;
1949;SDS011;975;48.760;9.152;2024-03-23T03:08:37;3.40;;;2.15;;
1949;SDS011;975;48.760;9.152;2024-03-23T03:11:03;2.33;;;1.73;;
1949;SDS011;975;48.760;9.152;2024-03-23T03:13:31;3.85;;;2.17;;
1949;SDS011;975;48.760;9.152;2024-03-23T03:15:59;4.78;;;1.98;;
1949;SDS011;975;48.760;9.152;2024-03-23T03:18:26;3.75;;;1.80;;
1949;SDS011;975;48.760;9.152;2024-03-23T03:20:54;3.70;;;1.80;;
1949;SDS011;975;48.760;9.152;2024-03-23T03:23:21;4.53;;;2.00;;
1949;SDS011;975;48.760;9.152;2024-03-23T03:25:48;3.88;;;2.08;;
1949;SDS011;975;48.760;9.152;2024-03-23T03:28:15;4.28;;;1.70;;
1949;SDS011;975;48.760;9.152;2024-03-23T03:30:45;3.78;;;1.50;;
1949;SDS011;975;48.760;9.152;2024-03-23T03:33:13;3.03;;;1.67;;
1949;SDS011;975;48.760;9.152;2024-03-23T03:35:40;3.90;;;1.88;;
1949;SDS011;975;48.760;9.152;2024-03-23T03:38:08;2.63;;;1.95;;
1949;SDS011;975;48.760;9.152;2024-03-23T03:40:35;3.08;;;1.75;;
1949;SDS011;975;48.760;9.152;2024-03-23T03:43:03;1.77;;;1.55;;
1949;SDS011;975;48.760;9.152;2024-03-23T03:45:29;4.38;;;1.70;;
1949;SDS011;975;48.760;9.152;2024-03-23T03:47:57;2.55;;;1.90;;
1949;SDS011;975;48.760;9.152;2024-03-23T03:50:25;4.82;;;2.10;;
1949;SDS011;975;48.760;9.152;2024-03-23T03:52:53;4.05;;;1.90;;
1949;SDS011;975;48.760;9.152;2024-03-23T03:55:19;3.15;;;1.70;;
1949;SDS011;975;48.760;9.152;2024-03-23T03:57:47;4.18;;;1.92;;
1949;SDS011;975;48.760;9.152;2024-03-23T04:00:14;5.03;;;1.80;;
1949;SDS011;975;48.760;9.152;2024-03-23T04:02:41;2.95;;;1.85;;
1949;SDS011;975;48.760;9.152;2024-03-23T04:05:08;6.03;;;2.20;;
1949;SDS011;975;48.760;9.152;2024-03-23T04:07:36;5.55;;;1.83;;
1949;SDS011;975;48.760;9.152;2024-03-23T04:10:03;4.38;;;1.83;;
1949;SDS011;975;48.760;9.152;2024-03-23T04:12:33;2.72;;;1.73;;
1949;SDS011;975;48.760;9.152;2024-03-23T04:15:00;3.95;;;1.83;;
1949;SDS011;975;48.760;9.152;2024-03-23T04:17:29;3.55;;;2.17;;
1949;SDS011;975;48.760;9.152;2024-03-23T04:19:57;2.08;;;1.63;;
1949;SDS011;975;48.760;9.152;2024-03-23T04:22:25;3.90;;;2.03;;
1949;SDS011;975;48.760;9.152;2024-03-23T04:24:54;2.05;;;1.17;;
1949;SDS011;975;48.760;9.152;2024-03-23T04:27:22;4.95;;;1.67;;
1949;SDS011;975;48.760;9.152;2024-03-23T04:29:49;4.47;;;1.88;;
1949;SDS011;975;48.760;9.152;2024-03-23T04:32:19;5.60;;;1.92;;
1949;SDS011;975;48.760;9.152;2024-03-23T04:34:46;6.30;;;1.77;;
1949;SDS011;975;48.760;9.152;2024-03-23T04:37:13;5.75;;;2.00;;
1949;SDS011;975;48.760;9.152;2024-03-23T04:39:42;3.75;;;1.70;;
1949;SDS011;975;48.760;9.152;2024-03-23T04:42:10;4.40;;;2.03;;
1949;SDS011;975;48.760;9.152;2024-03-23T04:44:38;2.90;;;1.70;;
1949;SDS011;975;48.760;9.152;2024-03-23T04:47:05;1.95;;;1.65;;
1949;SDS011;975;48.760;9.152;2024-03-23T04:49:33;3.67;;;1.70;;
1949;SDS011;975;48.760;9.152;2024-03-23T04:52:02;4.78;;;2.67;;
1949;SDS011;975;48.760;9.152;2024-03-23T04:54:29;3.13;;;1.92;;
1949;SDS011;975;48.760;9.152;2024-03-23T04:56:57;2.95;;;1.83;;
1949;SDS011;975;48.760;9.152;2024-03-23T04:59:25;4.22;;;2.40;;
1949;SDS011;975;48.760;9.152;2024-03-23T05:01:52;4.70;;;2.67;;
1949;SDS011;975;48.760;9.152;2024-03-23T05:04:19;8.30;;;3.08;;
1949;SDS011;975;48.760;9.152;2024-03-23T05:06:46;5.90;;;3.08;;
1949;SDS011;975;48.760;9.152;2024-03-23T05:09:13;5.00;;;3.13;;
1949;SDS011;975;48.760;9.152;2024-03-23T05:11:40;7.47;;;3.63;;
1949;SDS011;975;48.760;9.152;2024-03-23T05:14:07;5.50;;;3.00;;
1949;SDS011;975;48.760;9.152;2024-03-23T05:16:36;9.35;;;4.07;;
1949;SDS011;975;48.760;9.152;2024-03-23T05:19:02;9.50;;;4.65;;
1949;SDS011;975;48.760;9.152;2024-03-23T05:21:30;12.50;;;4.75;;
1949;SDS011;975;48.760;9.152;2024-03-23T05:23:56;9.43;;;4.90;;
1949;SDS011;975;48.760;9.152;2024-03-23T05:26:24;9.85;;;4.65;;
1949;SDS011;975;48.760;9.152;2024-03-23T05:28:50;10.55;;;5.53;;
1949;SDS011;975;48.760;9.152;2024-03-23T05:31:23;10.65;;;5.20;;
1949;SDS011;975;48.760;9.152;2024-03-23T05:33:51;10.25;;;5.43;;
1949;SDS011;975;48.760;9.152;2024-03-23T05:36:19;10.88;;;5.40;;
1949;SDS011;975;48.760;9.152;2024-03-23T05:38:45;13.45;;;6.32;;
1949;SDS011;975;48.760;9.152;2024-03-23T05:41:13;12.88;;;5.97;;
1949;SDS011;975;48.760;9.152;2024-03-23T05:43:39;12.60;;;5.53;;
1949;SDS011;975;48.760;9.152;2024-03-23T05:46:07;11.60;;;5.75;;
1949;SDS011;975;48.760;9.152;2024-03-23T05:48:34;10.77;;;5.10;;
1949;SDS011;975;48.760;9.152;2024-03-23T05:51:03;11.55;;;5.97;;
1949;SDS011;975;48.760;9.152;2024-03-23T05:53:29;11.73;;;5.72;;
1949;SDS011;975;48.760;9.152;2024-03-23T05:56:01;10.88;;;5.55;;
1949;SDS011;975;48.760;9.152;2024-03-23T05:58:29;12.05;;;4.93;;
1949;SDS011;975;48.760;9.152;2024-03-23T06:00:57;11.38;;;6.05;;
1949;SDS011;975;48.760;9.152;2024-03-23T06:03:24;9.13;;;4.18;;
1949;SDS011;975;48.760;9.152;2024-03-23T06:05:52;10.02;;;4.57;;
1949;SDS011;975;48.760;9.152;2024-03-23T06:08:19;9.05;;;3.88;;
1949;SDS011;975;48.760;9.152;2024-03-23T06:10:47;6.38;;;4.20;;
1949;SDS011;975;48.760;9.152;2024-03-23T06:13:14;10.30;;;4.75;;
1949;SDS011;975;48.760;9.152;2024-03-23T06:15:43;7.93;;;3.38;;
1949;SDS011;975;48.760;9.152;2024-03-23T06:18:11;8.50;;;3.47;;
1949;SDS011;975;48.760;9.152;2024-03-23T06:20:39;5.40;;;2.80;;
1949;SDS011;975;48.760;9.152;2024-03-23T06:23:05;5.20;;;2.53;;
1949;SDS011;975;48.760;9.152;2024-03-23T06:25:35;4.40;;;2.33;;
1949;SDS011;975;48.760;9.152;2024-03-23T06:28:01;4.07;;;1.88;;
1949;SDS011;975;48.760;9.152;2024-03-23T06:30:29;3.35;;;1.77;;
1949;SDS011;975;48.760;9.152;2024-03-23T06:32:57;5.00;;;1.70;;
1949;SDS011;975;48.760;9.152;2024-03-23T06:35:25;2.08;;;1.17;;
1949;SDS011;975;48.760;9.152;2024-03-23T06:37:59;1.65;;;0.90;;
1949;SDS011;975;48.760;9.152;2024-03-23T06:40:27;2.03;;;1.05;;
1949;SDS011;975;48.760;9.152;2024-03-23T06:42:53;1.95;;;1.02;;
1949;SDS011;975;48.760;9.152;2024-03-23T06:45:21;0.82;;;0.38;;
1949;SDS011;975;48.760;9.152;2024-03-23T06:47:48;0.30;;;0.30;;
1949;SDS011;975;48.760;9.152;2024-03-23T06:50:17;0.30;;;0.20;;
1949;SDS011;975;48.760;9.152;2024-03-23T06:52:44;0.30;;;0.30;;
1949;SDS011;975;48.760;9.152;2024-03-23T06:55:13;0.10;;;0.10;;
1949;SDS011;975;48.760;9.152;2024-03-23T06:57:40;0.25;;;0.20;;
1949;SDS011;975;48.760;9.152;2024-03-23T07:00:08;0.20;;;0.10;;
1949;SDS011;975;48.760;9.152;2024-03-23T07:02:35;1.52;;;0.30;;
1949;SDS011;975;48.760;9.152;2024-03-23T07:05:03;0.65;;;0.20;;
1949;SDS011;975;48.760;9.152;2024-03-23T07:07:30;1.10;;;0.28;;
1949;SDS011;975;48.760;9.152;2024-03-23T07:09:57;0.22;;;0.22;;
1949;SDS011;975;48.760;9.152;2024-03-23T07:12:25;0.93;;;0.30;;
1949;SDS011;975;48.760;9.152;2024-03-23T07:14:53;2.25;;;0.95;;
1949;SDS011;975;48.760;9.152;2024-03-23T07:17:20;0.70;;;0.30;;
1949;SDS011;975;48.760;9.152;2024-03-23T07:19:47;0.40;;;0.20;;
1949;SDS011;975;48.760;9.152;2024-03-23T07:22:15;0.60;;;0.10;;
1949;SDS011;975;48.760;9.152;2024-03-23T07:24:42;0.10;;;0.10;;
1949;SDS011;975;48.760;9.152;2024-03-23T07:27:09;0.03;;;0.03;;
1949;SDS011;975;48.760;9.152;2024-03-23T07:29:37;0.20;;;0.20;;
1949;SDS011;975;48.760;9.152;2024-03-23T07:32:05;0.93;;;0.20;;
1949;SDS011;975;48.760;9.152;2024-03-23T07:34:32;1.52;;;0.08;;
1949;SDS011;975;48.760;9.152;2024-03-23T07:37:00;0.20;;;0.10;;
1949;SDS011;975;48.760;9.152;2024-03-23T07:39:26;0.17;;;0.10;;
1949;SDS011;975;48.760;9.152;2024-03-23T07:41:54;0.47;;;0.10;;
1949;SDS011;975;48.760;9.152;2024-03-23T07:44:20;0.08;;;0.08;;
1949;SDS011;975;48.760;9.152;2024-03-23T07:46:49;0.10;;;0.10;;
1949;SDS011;975;48.760;9.152;2024-03-23T07:49:16;0.03;;;0.00;;
1949;SDS011;975;48.760;9.152;2024-03-23T07:51:44;0.20;;;0.20;;
1949;SDS011;975;48.760;9.152;2024-03-23T07:54:11;0.82;;;0.20;;
1949;SDS011;975;48.760;9.152;2024-03-23T07:56:38;1.10;;;0.10;;
1949;SDS011;975;48.760;9.152;2024-03-23T07:59:05;0.17;;;0.17;;
1949;SDS011;975;48.760;9.152;2024-03-23T08:01:32;0.28;;;0.10;;
1949;SDS011;975;48.760;9.152;2024-03-23T08:04:01;0.65;;;0.25;;
1949;SDS011;975;48.760;9.152;2024-03-23T08:06:28;0.30;;;0.10;;
1949;SDS011;975;48.760;9.152;2024-03-23T08:08:55;0.22;;;0.20;;
1949;SDS011;975;48.760;9.152;2024-03-23T08:13:52;0.30;;;0.30;;
1949;SDS011;975;48.760;9.152;2024-03-23T08:16:20;0.30;;;0.20;;
1949;SDS011;975;48.760;9.152;2024-03-23T08:18:46;0.63;;;0.35;;
1949;SDS011;975;48.760;9.152;2024-03-23T08:21:15;0.20;;;0.10;;
1949;SDS011;975;48.760;9.152;2024-03-23T08:23:42;0.30;;;0.20;;
1949;SDS011;975;48.760;9.152;2024-03-23T08:26:10;0.40;;;0.30;;
1949;SDS011;975;48.760;9.152;2024-03-23T08:28:37;0.32;;;0.20;;
1949;SDS011;975;48.760;9.152;2024-03-23T08:31:07;0.32;;;0.20;;
1949;SDS011;975;48.760;9.152;2024-03-23T08:33:34;0.52;;;0.20;;
1949;SDS011;975;48.760;9.152;2024-03-23T08:36:02;0.38;;;0.20;;
1949;SDS011;975;48.760;9.152;2024-03-23T08:38:31;0.70;;;0.52;;
1949;SDS011;975;48.760;9.152;2024-03-23T08:40:59;0.57;;;0.38;;
1949;SDS011;975;48.760;9.152;2024-03-23T08:43:26;0.50;;;0.40;;
1949;SDS011;975;48.760;9.152;2024-03-23T08:45:54;0.95;;;0.50;;
1949;SDS011;975;48.760;9.152;2024-03-23T08:48:21;0.35;;;0.28;;
1949;SDS011;975;48.760;9.152;2024-03-23T08:50:57;0.80;;;0.35;;
1949;SDS011;975;48.760;9.152;2024-03-23T08:53:24;0.45;;;0.20;;
1949;SDS011;975;48.760;9.152;2024-03-23T08:55:54;1.50;;;0.65;;
1949;SDS011;975;48.760;9.152;2024-03-23T08:58:21;1.17;;;0.40;;
1949;SDS011;975;48.760;9.152;2024-03-23T09:00:49;0.50;;;0.45;;
1949;SDS011;975;48.760;9.152;2024-03-23T09:03:16;0.38;;;0.38;;
1949;SDS011;975;48.760;9.152;2024-03-23T09:05:44;0.30;;;0.25;;
1949;SDS011;975;48.760;9.152;2024-03-23T09:08:10;0.75;;;0.60;;
1949;SDS011;975;48.760;9.152;2024-03-23T09:10:38;1.00;;;0.50;;
1949;SDS011;975;48.760;9.152;2024-03-23T09:13:07;2.15;;;0.57;;
1949;SDS011;975;48.760;9.152;2024-03-23T09:15:34;1.58;;;0.50;;
1949;SDS011;975;48.760;9.152;2024-03-23T09:18:01;1.65;;;0.47;;
1949;SDS011;975;48.760;9.152;2024-03-23T09:20:32;1.23;;;0.77;;
1949;SDS011;975;48.760;9.152;2024-03-23T09:22:58;1.40;;;0.80;;
1949;SDS011;975;48.760;9.152;2024-03-23T09:25:26;3.03;;;1.10;;
1949;SDS011;975;48.760;9.152;2024-03-23T09:27:53;1.05;;;0.77;;
1949;SDS011;975;48.760;9.152;2024-03-23T09:30:21;4.32;;;1.58;;
1949;SDS011;975;48.760;9.152;2024-03-23T09:32:48;5.60;;;1.10;;
1949;SDS011;975;48.760;9.152;2024-03-23T09:35:16;3.65;;;1.52;;
1949;SDS011;975;48.760;9.152;2024-03-23T09:37:42;14.93;;;1.77;;
1949;SDS011;975;48.760;9.152;2024-03-23T09:40:10;5.18;;;1.73;;
1949;SDS011;975;48.760;9.152;2024-03-23T09:42:37;4.43;;;1.25;;
1949;SDS011;975;48.760;9.152;2024-03-23T09:45:05;3.78;;;1.27;;
1949;SDS011;975;48.760;9.152;2024-03-23T09:47:34;6.60;;;2.35;;
1949;SDS011;975;48.760;9.152;2024-03-23T09:50:01;1.90;;;1.02;;
1949;SDS011;975;48.760;9.152;2024-03-23T09:52:30;6.13;;;1.20;;
1949;SDS011;975;48.760;9.152;2024-03-23T09:54:57;3.63;;;1.35;;
1949;SDS011;975;48.760;9.152;2024-03-23T09:57:24;6.70;;;1.90;;
1949;SDS011;975;48.760;9.152;2024-03-23T09:59:52;2.90;;;1.40;;
1949;SDS011;975;48.760;9.152;2024-03-23T10:02:20;4.75;;;1.83;;
1949;SDS011;975;48.760;9.152;2024-03-23T10:04:49;5.35;;;1.65;;
1949;SDS011;975;48.760;9.152;2024-03-23T10:07:18;7.93;;;1.50;;
1949;SDS011;975;48.760;9.152;2024-03-23T10:09:45;6.15;;;1.58;;
1949;SDS011;975;48.760;9.152;2024-03-23T10:12:14;9.10;;;1.63;;
1949;SDS011;975;48.760;9.152;2024-03-23T10:14:41;4.57;;;1.65;;
1949;SDS011;975;48.760;9.152;2024-03-23T10:17:11;7.00;;;1.77;;
1949;SDS011;975;48.760;9.152;2024-03-23T10:19:40;4.50;;;1.70;;
1949;SDS011;975;48.760;9.152;2024-03-23T10:22:10;4.60;;;1.63;;
1949;SDS011;975;48.760;9.152;2024-03-23T10:24:37;2.03;;;1.30;;
1949;SDS011;975;48.760;9.152;2024-03-23T10:27:04;3.17;;;1.55;;
1949;SDS011;975;48.760;9.152;2024-03-23T10:29:31;2.60;;;1.45;;
1949;SDS011;975;48.760;9.152;2024-03-23T10:32:08;7.63;;;1.92;;
1949;SDS011;975;48.760;9.152;2024-03-23T10:34:36;2.65;;;1.15;;
1949;SDS011;975;48.760;9.152;2024-03-23T10:37:03;2.55;;;1.48;;
1949;SDS011;975;48.760;9.152;2024-03-23T10:39:33;4.05;;;1.50;;
1949;SDS011;975;48.760;9.152;2024-03-23T10:42:00;3.03;;;1.48;;
1949;SDS011;975;48.760;9.152;2024-03-23T10:44:29;4.90;;;1.75;;
1949;SDS011;975;48.760;9.152;2024-03-23T10:46:57;4.68;;;1.50;;
1949;SDS011;975;48.760;9.152;2024-03-23T10:49:28;5.93;;;1.98;;
1949;SDS011;975;48.760;9.152;2024-03-23T10:51:58;9.43;;;2.05;;
1949;SDS011;975;48.760;9.152;2024-03-23T10:54:25;5.95;;;1.90;;
1949;SDS011;975;48.760;9.152;2024-03-23T10:56:57;5.50;;;2.08;;
1949;SDS011;975;48.760;9.152;2024-03-23T10:59:27;3.90;;;1.70;;
1949;SDS011;975;48.760;9.152;2024-03-23T11:01:54;3.90;;;1.42;;
1949;SDS011;975;48.760;9.152;2024-03-23T11:04:32;3.92;;;1.17;;
1949;SDS011;975;48.760;9.152;2024-03-23T11:06:58;2.55;;;1.33;;
1949;SDS011;975;48.760;9.152;2024-03-23T11:09:38;2.60;;;1.10;;
1949;SDS011;975;48.760;9.152;2024-03-23T11:12:18;2.70;;;0.93;;
1949;SDS011;975;48.760;9.152;2024-03-23T11:14:52;4.03;;;1.38;;
1949;SDS011;975;48.760;9.152;2024-03-23T11:17:20;3.45;;;1.20;;
1949;SDS011;975;48.760;9.152;2024-03-23T11:19:52;3.47;;;1.00;;
1949;SDS011;975;48.760;9.152;2024-03-23T11:25:02;2.63;;;1.10;;
1949;SDS011;975;48.760;9.152;2024-03-23T11:27:30;3.40;;;1.10;;
1949;SDS011;975;48.760;9.152;2024-03-23T11:30:09;3.78;;;1.38;;
1949;SDS011;975;48.760;9.152;2024-03-23T11:32:38;4.65;;;0.88;;
1949;SDS011;975;48.760;9.152;2024-03-23T11:35:06;5.43;;;1.48;;
1949;SDS011;975;48.760;9.152;2024-03-23T11:37:36;3.20;;;1.00;;
1949;SDS011;975;48.760;9.152;2024-03-23T11:40:19;1.40;;;0.90;;
1949;SDS011;975;48.760;9.152;2024-03-23T11:42:47;1.98;;;1.10;;
1949;SDS011;975;48.760;9.152;2024-03-23T11:45:22;2.28;;;1.02;;
1949;SDS011;975;48.760;9.152;2024-03-23T11:47:49;1.73;;;0.98;;
1949;SDS011;975;48.760;9.152;2024-03-23T11:50:19;1.52;;;0.80;;
1949;SDS011;975;48.760;9.152;2024-03-23T11:52:46;3.33;;;1.13;;
1949;SDS011;975;48.760;9.152;2024-03-23T11:55:14;1.80;;;0.70;;
1949;SDS011;975;48.760;9.152;2024-03-23T11:57:43;1.35;;;0.77;;
1949;SDS011;975;48.760;9.152;2024-03-23T12:00:21;4.55;;;1.02;;
1949;SDS011;975;48.760;9.152;2024-03-23T12:02:49;4.95;;;0.90;;
1949;SDS011;975;48.760;9.152;2024-03-23T12:05:17;2.80;;;0.75;;
1949;SDS011;975;48.760;9.152;2024-03-23T12:07:44;1.58;;;0.70;;
1949;SDS011;975;48.760;9.152;2024-03-23T12:10:12;2.58;;;0.70;;
1949;SDS011;975;48.760;9.152;2024-03-23T12:12:40;2.45;;;1.10;;
1949;SDS011;975;48.760;9.152;2024-03-23T12:15:07;3.13;;;0.82;;
1949;SDS011;975;48.760;9.152;2024-03-23T12:17:35;4.07;;;1.02;;
1949;SDS011;975;48.760;9.152;2024-03-23T12:20:04;1.60;;;0.52;;
1949;SDS011;975;48.760;9.152;2024-03-23T12:22:31;5.80;;;0.90;;
1949;SDS011;975;48.760;9.152;2024-03-23T12:25:00;5.18;;;0.73;;
1949;SDS011;975;48.760;9.152;2024-03-23T12:27:26;4.00;;;1.05;;
1949;SDS011;975;48.760;9.152;2024-03-23T12:29:54;3.17;;;1.05;;
1949;SDS011;975;48.760;9.152;2024-03-23T12:32:20;2.90;;;1.17;;
1949;SDS011;975;48.760;9.152;2024-03-23T12:34:49;2.83;;;1.02;;
1949;SDS011;975;48.760;9.152;2024-03-23T12:37:16;6.13;;;1.20;;
1949;SDS011;975;48.760;9.152;2024-03-23T12:39:44;4.30;;;1.00;;
1949;SDS011;975;48.760;9.152;2024-03-23T12:42:11;2.17;;;0.90;;
1949;SDS011;975;48.760;9.152;2024-03-23T12:44:39;8.05;;;0.93;;
1949;SDS011;975;48.760;9.152;2024-03-23T12:47:06;5.22;;;1.00;;
1949;SDS011;975;48.760;9.152;2024-03-23T12:49:34;4.25;;;1.00;;
1949;SDS011;975;48.760;9.152;2024-03-23T12:52:05;7.18;;;0.82;;
1949;SDS011;975;48.760;9.152;2024-03-23T12:54:33;2.55;;;0.88;;
1949;SDS011;975;48.760;9.152;2024-03-23T12:57:00;4.57;;;1.30;;
1949;SDS011;975;48.760;9.152;2024-03-23T12:59:28;1.52;;;1.00;;
1949;SDS011;975;48.760;9.152;2024-03-23T13:01:54;2.70;;;1.27;;
1949;SDS011;975;48.760;9.152;2024-03-23T13:04:22;3.67;;;1.10;;
1949;SDS011;975;48.760;9.152;2024-03-23T13:06:49;4.20;;;1.25;;
1949;SDS011;975;48.760;9.152;2024-03-23T13:09:18;1.67;;;0.80;;
1949;SDS011;975;48.760;9.152;2024-03-23T13:11:44;3.95;;;1.10;;
1949;SDS011;975;48.760;9.152;2024-03-23T13:14:12;7.45;;;1.85;;
1949;SDS011;975;48.760;9.152;2024-03-23T13:16:42;3.33;;;0.90;;
1949;SDS011;975;48.760;9.152;2024-03-23T13:19:12;3.67;;;1.05;;
1949;SDS011;975;48.760;9.152;2024-03-23T13:21:40;4.32;;;1.17;;
1949;SDS011;975;48.760;9.152;2024-03-23T13:24:07;6.20;;;1.38;;
1949;SDS011;975;48.760;9.152;2024-03-23T13:26:36;6.82;;;1.30;;
1949;SDS011;975;48.760;9.152;2024-03-23T13:29:03;3.17;;;1.33;;
1949;SDS011;975;48.760;9.152;2024-03-23T13:31:30;3.83;;;0.93;;
1949;SDS011;975;48.760;9.152;2024-03-23T13:33:59;7.07;;;1.20;;
1949;SDS011;975;48.760;9.152;2024-03-23T13:36:27;4.32;;;1.00;;
1949;SDS011;975;48.760;9.152;2024-03-23T13:38:55;2.33;;;0.80;;
1949;SDS011;975;48.760;9.152;2024-03-23T13:41:21;4.88;;;0.98;;
1949;SDS011;975;48.760;9.152;2024-03-23T13:43:50;2.95;;;0.77;;
1949;SDS011;975;48.760;9.152;2024-03-23T13:46:17;1.10;;;0.47;;
1949;SDS011;975;48.760;9.152;2024-03-23T13:48:44;4.50;;;1.00;;
1949;SDS011;975;48.760;9.152;2024-03-23T13:51:11;2.03;;;0.68;;
1949;SDS011;975;48.760;9.152;2024-03-23T13:53:39;3.50;;;1.15;;
1949;SDS011;975;48.760;9.152;2024-03-23T13:56:06;5.57;;;0.90;;
1949;SDS011;975;48.760;9.152;2024-03-23T13:58:33;3.15;;;0.70;;
1949;SDS011;975;48.760;9.152;2024-03-23T14:01:02;1.48;;;0.82;;
1949;SDS011;975;48.760;9.152;2024-03-23T14:03:29;1.10;;;0.40;;
1949;SDS011;975;48.760;9.152;2024-03-23T14:05:57;3.80;;;0.70;;
1949;SDS011;975;48.760;9.152;2024-03-23T14:08:27;0.88;;;0.52;;
1949;SDS011;975;48.760;9.152;2024-03-23T14:10:53;2.15;;;0.60;;
1949;SDS011;975;48.760;9.152;2024-03-23T14:13:22;1.60;;;0.45;;
1949;SDS011;975;48.760;9.152;2024-03-23T14:15:52;2.17;;;0.70;;
1949;SDS011;975;48.760;9.152;2024-03-23T14:18:21;3.95;;;0.98;;
1949;SDS011;975;48.760;9.152;2024-03-23T14:20:51;0.65;;;0.38;;
1949;SDS011;975;48.760;9.152;2024-03-23T14:23:19;0.85;;;0.40;;
1949;SDS011;975;48.760;9.152;2024-03-23T14:25:46;1.75;;;0.52;;
1949;SDS011;975;48.760;9.152;2024-03-23T14:28:14;1.58;;;0.30;;
1949;SDS011;975;48.760;9.152;2024-03-23T14:30:41;1.30;;;0.32;;
1949;SDS011;975;48.760;9.152;2024-03-23T14:33:08;0.40;;;0.40;;
1949;SDS011;975;48.760;9.152;2024-03-23T14:35:37;2.38;;;0.32;;
1949;SDS011;975;48.760;9.152;2024-03-23T14:38:05;1.60;;;0.40;;
1949;SDS011;975;48.760;9.152;2024-03-23T14:40:32;4.82;;;0.68;;
1949;SDS011;975;48.760;9.152;2024-03-23T14:43:00;1.58;;;0.20;;
1949;SDS011;975;48.760;9.152;2024-03-23T14:45:28;2.25;;;0.50;;
1949;SDS011;975;48.760;9.152;2024-03-23T14:47:54;1.38;;;0.50;;
1949;SDS011;975;48.760;9.152;2024-03-23T14:50:23;1.50;;;0.43;;
1949;SDS011;975;48.760;9.152;2024-03-23T14:52:52;0.90;;;0.28;;
1949;SDS011;975;48.760;9.152;2024-03-23T14:55:19;1.27;;;0.60;;
1949;SDS011;975;48.760;9.152;2024-03-23T14:57:46;1.23;;;0.50;;
1949;SDS011;975;48.760;9.152;2024-03-23T15:00:16;4.28;;;0.45;;
1949;SDS011;975;48.760;9.152;2024-03-23T15:02:44;1.02;;;0.50;;
1949;SDS011;975;48.760;9.152;2024-03-23T15:05:12;1.65;;;0.50;;
1949;SDS011;975;48.760;9.152;2024-03-23T15:07:39;2.08;;;0.40;;
1949;SDS011;975;48.760;9.152;2024-03-23T15:10:09;3.25;;;0.70;;
1949;SDS011;975;48.760;9.152;2024-03-23T15:12:36;0.90;;;0.40;;
1949;SDS011;975;48.760;9.152;2024-03-23T15:15:04;0.85;;;0.60;;
1949;SDS011;975;48.760;9.152;2024-03-23T15:17:31;1.27;;;0.40;;
1949;SDS011;975;48.760;9.152;2024-03-23T15:20:02;0.40;;;0.30;;
1949;SDS011;975;48.760;9.152;2024-03-23T15:22:31;1.17;;;0.30;;
1949;SDS011;975;48.760;9.152;2024-03-23T15:24:59;0.73;;;0.32;;
1949;SDS011;975;48.760;9.152;2024-03-23T15:27:27;3.70;;;0.43;;
1949;SDS011;975;48.760;9.152;2024-03-23T15:29:55;1.50;;;0.50;;
1949;SDS011;975;48.760;9.152;2024-03-23T15:32:23;1.25;;;0.43;;
1949;SDS011;975;48.760;9.152;2024-03-23T15:34:50;2.33;;;0.28;;
1949;SDS011;975;48.760;9.152;2024-03-23T15:37:17;7.60;;;0.70;;
1949;SDS011;975;48.760;9.152;2024-03-23T15:39:45;0.43;;;0.30;;
1949;SDS011;975;48.760;9.152;2024-03-23T15:42:11;1.17;;;0.40;;
1949;SDS011;975;48.760;9.152;2024-03-23T15:44:40;1.58;;;0.50;;
1949;SDS011;975;48.760;9.152;2024-03-23T15:47:07;2.75;;;0.55;;
1949;SDS011;975;48.760;9.152;2024-03-23T15:49:36;3.88;;;1.48;;
1949;SDS011;975;48.760;9.152;2024-03-23T15:52:03;3.10;;;0.88;;
1949;SDS011;975;48.760;9.152;2024-03-23T15:54:31;0.90;;;0.40;;
1949;SDS011;975;48.760;9.152;2024-03-23T15:56:57;3.13;;;0.52;;
1949;SDS011;975;48.760;9.152;2024-03-23T15:59:25;0.63;;;0.25;;
1949;SDS011;975;48.760;9.152;2024-03-23T16:01:53;1.95;;;0.55;;
1949;SDS011;975;48.760;9.152;2024-03-23T16:04:21;1.17;;;0.50;;
1949;SDS011;975;48.760;9.152;2024-03-23T16:06:47;2.63;;;0.47;;
1949;SDS011;975;48.760;9.152;2024-03-23T16:09:15;3.78;;;0.65;;
1949;SDS011;975;48.760;9.152;2024-03-23T16:11:42;1.02;;;0.40;;
1949;SDS011;975;48.760;9.152;2024-03-23T16:14:09;3.35;;;0.60;;
1949;SDS011;975;48.760;9.152;2024-03-23T16:16:36;0.47;;;0.30;;
1949;SDS011;975;48.760;9.152;2024-03-23T16:19:05;2.17;;;0.57;;
1949;SDS011;975;48.760;9.152;2024-03-23T16:21:32;2.70;;;0.45;;
1949;SDS011;975;48.760;9.152;2024-03-23T16:23:59;0.80;;;0.30;;
1949;SDS011;975;48.760;9.152;2024-03-23T16:26:26;1.65;;;0.22;;
1949;SDS011;975;48.760;9.152;2024-03-23T16:28:54;0.30;;;0.30;;
1949;SDS011;975;48.760;9.152;2024-03-23T16:31:20;0.63;;;0.30;;
1949;SDS011;975;48.760;9.152;2024-03-23T16:33:48;0.88;;;0.43;;